Time;durP1;ratioP1;P1;durP2;ratioP2;P2;SDS_P1;SDS_P2;PMS_P1;PMS_P2;Temp;Humidity;BMP_temperature;BMP_pressure;BME280_temperature;BME280_humidity;BME280_pressure;Samples;Min_cycle;Max_cycle;Signal;HPM_P1;HPM_P2
2022/11/07 00:00:26;;;;;;;;;;;;;;;7.55;80.43;97868.91;4891391;29;20317;-56
2022/11/07 00:02:57;;;;;;;;;;;;;;;7.57;80.36;97869.44;4893394;29;19935;-56
2022/11/07 00:05:25;;;;;;;;;;;;;;;7.61;80.57;97876.66;4878758;29;19932;-56
2022/11/07 00:07:53;;;;;;;;;;;;;;;7.65;80.46;97873.38;4879545;29;19967;-56
2022/11/07 00:10:21;;;;;;;;;;;;;;;7.60;80.40;97869.66;4878324;29;19935;-56
2022/11/07 00:12:49;;;;;;;;;;;;;;;7.57;80.31;97858.63;4878292;29;19932;-56
2022/11/07 00:15:19;;;;;;;;;;;;;;;7.66;80.57;97864.97;4879331;29;19931;-55
2022/11/07 00:17:47;;;;;;;;;;;;;;;7.69;80.14;97869.81;4876799;29;19927;-56
2022/11/07 00:20:15;;;;;;;;;;;;;;;7.68;79.79;97876.31;4879474;29;20040;-56
2022/11/07 00:22:44;;;;;;;;;;;;;;;7.61;80.00;97873.16;4879196;29;19939;-56
2022/11/07 00:25:14;;;;;;;;;;;;;;;7.60;80.19;97877.75;4877903;29;19955;-56
2022/11/07 00:27:42;;;;;;;;;;;;;;;7.63;80.18;97881.00;4882957;29;20433;-56
2022/11/07 00:30:11;;;;;;;;;;;;;;;7.63;80.04;97889.91;4878903;29;20373;-56
2022/11/07 00:32:41;;;;;;;;;;;;;;;7.64;79.86;97888.00;4892336;29;19928;-57
2022/11/07 00:35:09;;;;;;;;;;;;;;;7.64;79.79;97896.91;4876291;29;19928;-56
2022/11/07 00:37:40;;;;;;;;;;;;;;;7.65;79.55;97890.41;4865838;29;20312;-56
2022/11/07 00:40:09;;;;;;;;;;;;;;;7.69;79.60;97896.84;4878690;29;19932;-57
2022/11/07 00:42:38;;;;;;;;;;;;;;;7.73;79.32;97888.97;4867645;29;19939;-56
2022/11/07 00:45:15;;;;;;;;;;;;;;;7.78;79.10;97897.00;4878579;29;19928;-56
2022/11/07 00:47:44;;;;;;;;;;;;;;;7.83;78.97;97894.22;4869016;29;19931;-56
2022/11/07 00:50:13;;;;;;;;;;;;;;;7.82;78.75;97900.69;4877157;29;19974;-57
2022/11/07 00:52:41;;;;;;;;;;;;;;;7.84;78.75;97904.72;4878075;29;19927;-56
2022/11/07 00:58:02;;;;;;;;;;;;;;;7.80;78.20;97921.84;4886859;29;19975;-57
2022/11/07 01:00:32;;;;;;;;;;;;;;;7.85;77.57;97910.94;4877806;29;19935;-56
2022/11/07 01:05:57;;;;;;;;;;;;;;;7.90;77.85;97912.78;4878038;29;19932;-56
2022/11/07 01:08:25;;;;;;;;;;;;;;;7.83;77.82;97929.38;4876430;29;19928;-56
2022/11/07 01:10:54;;;;;;;;;;;;;;;7.92;77.88;97922.19;4891943;29;19932;-56
2022/11/07 01:13:23;;;;;;;;;;;;;;;7.93;77.13;97925.69;4876948;29;20358;-56
2022/11/07 01:15:51;;;;;;;;;;;;;;;7.90;77.16;97923.59;4884414;29;20305;-56
2022/11/07 01:18:21;;;;;;;;;;;;;;;7.88;76.97;97922.00;4867093;29;19932;-56
2022/11/07 01:20:49;;;;;;;;;;;;;;;7.90;76.68;97913.56;4878278;29;19932;-56
2022/11/07 01:23:17;;;;;;;;;;;;;;;7.98;77.42;97914.78;4876214;29;19938;-56
2022/11/07 01:25:46;;;;;;;;;;;;;;;7.99;77.22;97919.09;4871342;29;20298;-56
2022/11/07 01:28:14;;;;;;;;;;;;;;;8.01;76.90;97919.63;4877173;29;20293;-56
2022/11/07 01:30:42;;;;;;;;;;;;;;;7.97;76.18;97918.59;4877210;29;19927;-56
2022/11/07 01:33:10;;;;;;;;;;;;;;;8.04;76.67;97925.28;4877462;29;19931;-56
2022/11/07 01:35:40;;;;;;;;;;;;;;;8.10;76.35;97939.53;4875786;29;20285;-56
2022/11/07 01:38:09;;;;;;;;;;;;;;;8.06;76.26;97933.09;4878293;29;19928;-57
2022/11/07 01:41:19;;;;;;;;;;;;;;;8.01;76.05;97927.75;4886367;29;19929;-57
2022/11/07 01:43:41;;;;;;;;;;;;;;;8.10;76.82;97928.69;4873172;29;19967;-56
2022/11/07 01:46:09;;;;;;;;;;;;;;;8.13;76.42;97934.31;4868937;29;19928;-56
2022/11/07 01:48:37;;;;;;;;;;;;;;;8.07;76.56;97937.38;4868273;29;20368;-56
2022/11/07 01:51:07;;;;;;;;;;;;;;;8.12;76.11;97942.72;4877404;29;20022;-57
2022/11/07 01:53:36;;;;;;;;;;;;;;;8.12;76.25;97932.69;4883936;29;20273;-56
2022/11/07 01:56:04;;;;;;;;;;;;;;;8.06;75.70;97938.50;4891665;29;19932;-57
2022/11/07 01:58:32;;;;;;;;;;;;;;;8.12;75.98;97938.13;4875616;29;19927;-57
2022/11/07 02:01:01;;;;;;;;;;;;;;;8.19;76.17;97937.72;4876676;29;19932;-56
2022/11/07 02:03:29;;;;;;;;;;;;;;;8.06;75.94;97939.28;4877300;29;19928;-57
2022/11/07 02:05:59;;;;;;;;;;;;;;;8.15;76.45;97936.75;4876897;29;19944;-57
2022/11/07 02:08:28;;;;;;;;;;;;;;;8.19;76.24;97942.34;4876910;29;19929;-57
2022/11/07 02:10:59;;;;;;;;;;;;;;;8.17;76.20;97936.44;4876529;29;19934;-57
2022/11/07 02:13:27;;;;;;;;;;;;;;;8.22;76.20;97934.44;4889829;29;19932;-56
2022/11/07 02:16:20;;;;;;;;;;;;;;;8.13;75.77;97928.91;4877106;29;19999;-56
2022/11/07 02:18:49;;;;;;;;;;;;;;;8.22;76.22;97930.94;4874738;29;19928;-57
2022/11/07 02:21:24;;;;;;;;;;;;;;;8.25;76.23;97936.56;4875184;29;20387;-57
2022/11/07 02:23:55;;;;;;;;;;;;;;;8.27;76.28;97936.28;4875319;29;20031;-57
2022/11/07 02:26:25;;;;;;;;;;;;;;;8.26;76.34;97931.97;4877198;29;19997;-58
2022/11/07 02:28:53;;;;;;;;;;;;;;;8.30;76.45;97936.47;4875960;29;19972;-56
2022/11/07 02:31:21;;;;;;;;;;;;;;;8.35;76.48;97938.28;4876952;29;19954;-56
2022/11/07 02:33:49;;;;;;;;;;;;;;;8.37;76.50;97936.94;4877339;29;20679;-57
2022/11/07 02:36:42;;;;;;;;;;;;;;;8.30;78.18;97933.75;4874899;29;19932;-57
2022/11/07 02:39:10;;;;;;;;;;;;;;;8.31;77.34;97934.56;4877394;29;19931;-57
2022/11/07 02:42:05;;;;;;;;;;;;;;;8.33;76.91;97930.47;4878831;29;20075;-57
2022/11/07 02:44:33;;;;;;;;;;;;;;;8.29;76.96;97936.78;4880201;29;19928;-56
2022/11/07 02:47:01;;;;;;;;;;;;;;;8.32;77.33;97936.19;4893765;29;19928;-57
2022/11/07 02:49:29;;;;;;;;;;;;;;;8.38;77.24;97940.44;4880113;29;20415;-57
2022/11/07 02:51:58;;;;;;;;;;;;;;;8.39;77.17;97942.06;4879870;29;19961;-57
2022/11/07 02:54:26;;;;;;;;;;;;;;;8.37;76.95;97930.72;4880378;29;20351;-57
2022/11/07 02:56:55;;;;;;;;;;;;;;;8.40;77.69;97939.03;4880084;29;19935;-57
2022/11/07 02:59:24;;;;;;;;;;;;;;;8.42;77.06;97932.56;4879815;29;19934;-57
2022/11/07 03:01:59;;;;;;;;;;;;;;;8.46;77.56;97933.53;4880301;29;20018;-57
2022/11/07 03:04:28;;;;;;;;;;;;;;;8.45;77.99;97924.63;4885233;29;20373;-57
2022/11/07 03:06:56;;;;;;;;;;;;;;;8.46;78.17;97930.84;4879664;29;20023;-57
2022/11/07 03:09:30;;;;;;;;;;;;;;;8.40;77.24;97932.81;4879853;29;19938;-57
2022/11/07 03:11:58;;;;;;;;;;;;;;;8.35;77.83;97930.97;4880190;29;20449;-57
2022/11/07 03:17:18;;;;;;;;;;;;;;;8.43;77.52;97943.06;4893002;29;19994;-57
2022/11/07 03:19:47;;;;;;;;;;;;;;;8.39;77.93;97937.44;4878524;29;19935;-57
2022/11/07 03:22:15;;;;;;;;;;;;;;;8.37;78.05;97939.66;4888619;29;19939;-57
2022/11/07 03:24:47;;;;;;;;;;;;;;;8.40;78.22;97939.03;4880510;29;20019;-57
2022/11/07 03:27:15;;;;;;;;;;;;;;;8.36;78.21;97937.22;4893568;29;19935;-56
2022/11/07 03:29:45;;;;;;;;;;;;;;;8.36;78.52;97948.03;4879420;29;19928;-56
2022/11/07 03:32:13;;;;;;;;;;;;;;;8.21;79.16;97940.97;4879840;29;19949;-57
2022/11/07 03:34:42;;;;;;;;;;;;;;;8.30;79.14;97944.59;4878238;29;19928;-56
2022/11/07 03:40:02;;;;;;;;;;;;;;;8.35;78.89;97943.72;4876195;29;19927;-57
2022/11/07 03:42:31;;;;;;;;;;;;;;;8.36;79.00;97951.59;4879733;29;19928;-57
2022/11/07 03:45:00;;;;;;;;;;;;;;;8.43;79.16;97953.91;4879985;29;19934;-58
2022/11/07 03:47:29;;;;;;;;;;;;;;;8.45;78.75;97945.47;4893153;29;19931;-57
2022/11/07 03:49:58;;;;;;;;;;;;;;;8.33;79.43;97949.44;4878283;29;19928;-57
2022/11/07 03:52:26;;;;;;;;;;;;;;;8.34;78.74;97951.03;4879236;29;19932;-58
2022/11/07 03:54:54;;;;;;;;;;;;;;;8.36;79.23;97948.88;4879642;29;19935;-57
2022/11/07 03:57:24;;;;;;;;;;;;;;;8.37;79.06;97961.31;4879594;29;20393;-57
2022/11/07 03:59:56;;;;;;;;;;;;;;;8.39;79.01;97961.00;4876807;29;19957;-57
2022/11/07 04:02:25;;;;;;;;;;;;;;;8.42;79.03;97957.72;4879952;29;19932;-57
2022/11/07 04:04:54;;;;;;;;;;;;;;;8.40;79.18;97958.00;4880338;29;19967;-57
2022/11/07 04:07:22;;;;;;;;;;;;;;;8.44;79.23;97960.13;4878433;29;19928;-57
2022/11/07 04:09:52;;;;;;;;;;;;;;;8.45;79.17;97972.56;4879618;29;19950;-57
2022/11/07 04:18:18;;;;;;;;;;;;;;;8.46;79.22;97968.75;4879164;29;19928;-57
2022/11/07 04:20:48;;;;;;;;;;;;;;;8.52;79.14;97972.97;4879143;29;19928;-57
2022/11/07 04:23:16;;;;;;;;;;;;;;;8.50;79.23;97970.56;4872621;29;19935;-57
2022/11/07 04:28:30;;;;;;;;;;;;;;;8.53;78.97;97982.72;4889291;29;20488;-57
2022/11/07 04:30:58;;;;;;;;;;;;;;;8.54;79.05;97982.41;4878607;29;19927;-56
2022/11/07 04:33:26;;;;;;;;;;;;;;;8.51;79.34;97984.91;4876152;29;20028;-57
2022/11/07 04:35:56;;;;;;;;;;;;;;;8.54;79.37;97993.25;4877930;29;19932;-57
2022/11/07 04:38:24;;;;;;;;;;;;;;;8.53;79.64;97988.94;4878405;29;19928;-57
2022/11/07 04:40:52;;;;;;;;;;;;;;;8.55;79.41;97988.63;4875856;29;19928;-56
2022/11/07 04:43:20;;;;;;;;;;;;;;;8.51;79.68;97988.41;4878182;29;19928;-56
2022/11/07 04:45:49;;;;;;;;;;;;;;;8.42;80.09;97981.28;4878498;29;19928;-57
2022/11/07 04:48:18;;;;;;;;;;;;;;;8.36;80.08;97992.19;4878321;29;20400;-56
2022/11/07 04:50:45;;;;;;;;;;;;;;;8.29;80.12;97993.63;4879319;29;19927;-57
2022/11/07 04:53:16;;;;;;;;;;;;;;;8.25;80.22;97996.09;4878088;29;19935;-57
2022/11/07 04:55:45;;;;;;;;;;;;;;;8.20;80.46;97998.88;4871726;29;19928;-57
2022/11/07 04:58:13;;;;;;;;;;;;;;;8.17;80.49;97996.78;4877377;29;19928;-57
2022/11/07 05:00:42;;;;;;;;;;;;;;;8.12;80.51;98004.97;4884140;29;19928;-57
2022/11/07 05:03:09;;;;;;;;;;;;;;;8.10;80.81;98007.16;4867890;29;19932;-56
2022/11/07 05:05:38;;;;;;;;;;;;;;;8.10;80.91;98010.69;4877412;29;19991;-57
2022/11/07 05:08:06;;;;;;;;;;;;;;;8.10;81.21;98009.88;4888475;29;19936;-57
2022/11/07 05:10:35;;;;;;;;;;;;;;;8.16;81.13;98006.00;4877228;29;19928;-56
2022/11/07 05:13:04;;;;;;;;;;;;;;;8.22;81.10;98018.34;4876515;29;19931;-57
2022/11/07 05:15:32;;;;;;;;;;;;;;;8.24;80.88;98015.34;4877010;29;19934;-57
2022/11/07 05:20:52;;;;;;;;;;;;;;;8.31;80.70;98016.59;4877793;29;19935;-57
2022/11/07 05:23:20;;;;;;;;;;;;;;;8.36;80.53;98016.56;4877393;29;19932;-56
2022/11/07 05:25:50;;;;;;;;;;;;;;;8.34;80.68;98021.41;4869740;29;19928;-56
2022/11/07 05:28:19;;;;;;;;;;;;;;;8.35;80.83;98022.22;4876717;29;19927;-56
2022/11/07 05:30:58;;;;;;;;;;;;;;;8.39;80.39;98017.84;4878041;29;19988;-57
2022/11/07 05:33:26;;;;;;;;;;;;;;;8.42;80.32;98016.47;4877659;29;19931;-56
2022/11/07 05:35:54;;;;;;;;;;;;;;;8.40;80.34;98020.25;4891273;29;19934;-56
2022/11/07 05:38:23;;;;;;;;;;;;;;;8.43;80.38;98027.00;4874484;29;19940;-56
2022/11/07 05:40:52;;;;;;;;;;;;;;;8.38;80.49;98033.28;4876751;29;20030;-56
2022/11/07 05:43:45;;;;;;;;;;;;;;;8.40;80.45;98041.13;4872080;29;19938;-56
2022/11/07 05:46:14;;;;;;;;;;;;;;;8.40;80.25;98036.50;4875246;29;19927;-56
2022/11/07 05:48:42;;;;;;;;;;;;;;;8.31;80.39;98030.13;4874007;29;20035;-56
2022/11/07 05:51:10;;;;;;;;;;;;;;;8.31;80.63;98023.88;4876558;29;20357;-56
2022/11/07 05:53:38;;;;;;;;;;;;;;;8.29;80.71;98018.78;4874130;29;19932;-56
2022/11/07 05:56:08;;;;;;;;;;;;;;;8.34;80.45;98032.22;4878016;29;20305;-56
2022/11/07 05:58:38;;;;;;;;;;;;;;;8.31;80.38;98032.00;4877344;29;19932;-56
2022/11/07 06:01:06;;;;;;;;;;;;;;;8.22;80.18;98029.19;4871789;29;19934;-56
2022/11/07 06:03:35;;;;;;;;;;;;;;;8.22;80.21;98033.78;4881755;29;19927;-56
2022/11/07 06:06:04;;;;;;;;;;;;;;;8.15;80.53;98034.16;4874917;29;20192;-56
2022/11/07 06:08:31;;;;;;;;;;;;;;;8.01;81.00;98034.06;4875336;29;19988;-57
2022/11/07 06:10:59;;;;;;;;;;;;;;;8.05;80.96;98039.72;4872197;29;20322;-56
2022/11/07 06:13:29;;;;;;;;;;;;;;;8.09;80.71;98035.31;4873337;29;19931;-57
2022/11/07 06:16:23;;;;;;;;;;;;;;;8.10;80.58;98035.03;4881386;29;20372;-56
2022/11/07 06:18:52;;;;;;;;;;;;;;;8.11;80.59;98043.94;4880919;29;19927;-57
2022/11/07 06:21:20;;;;;;;;;;;;;;;8.14;80.41;98048.75;4879753;29;19928;-56
2022/11/07 06:23:47;;;;;;;;;;;;;;;8.05;80.46;98047.81;4879886;29;20401;-56
2022/11/07 06:26:40;;;;;;;;;;;;;;;8.12;80.37;98059.88;4878683;29;19927;-56
2022/11/07 06:29:35;;;;;;;;;;;;;;;8.15;80.33;98063.94;4880894;29;20031;-57
2022/11/07 06:32:03;;;;;;;;;;;;;;;8.21;80.16;98065.47;4880108;29;19931;-56
2022/11/07 06:34:31;;;;;;;;;;;;;;;8.23;79.81;98059.75;4879055;29;19928;-57
2022/11/07 06:37:24;;;;;;;;;;;;;;;8.29;79.80;98058.56;4869720;29;20282;-56
2022/11/07 06:39:55;;;;;;;;;;;;;;;8.30;79.88;98057.47;4878986;29;20027;-56
2022/11/07 06:42:25;;;;;;;;;;;;;;;8.35;79.72;98058.19;4878595;29;19935;-57
2022/11/07 06:44:55;;;;;;;;;;;;;;;8.31;79.83;98059.91;4895592;29;19940;-56
2022/11/07 06:50:15;;;;;;;;;;;;;;;8.39;79.24;98070.09;4883673;29;19928;-56
2022/11/07 06:52:46;;;;;;;;;;;;;;;8.45;79.22;98076.25;4873454;29;20409;-57
2022/11/07 06:55:20;;;;;;;;;;;;;;;8.33;79.33;98076.66;4880667;29;19928;-56
2022/11/07 06:57:51;;;;;;;;;;;;;;;8.44;79.23;98073.84;4880900;29;19936;-57
2022/11/07 07:00:21;;;;;;;;;;;;;;;8.49;79.31;98081.88;4892224;29;19936;-56
2022/11/07 07:02:51;;;;;;;;;;;;;;;8.51;78.80;98085.09;4875373;29;19928;-57
2022/11/07 07:05:25;;;;;;;;;;;;;;;8.52;78.49;98092.09;4875899;29;20354;-57
2022/11/07 07:07:53;;;;;;;;;;;;;;;8.59;78.29;98098.78;4875593;29;19928;-56
2022/11/07 07:10:23;;;;;;;;;;;;;;;8.66;78.65;98099.22;4879807;29;19928;-56
2022/11/07 07:12:52;;;;;;;;;;;;;;;8.73;78.29;98101.53;4879514;29;19941;-56
2022/11/07 07:15:21;;;;;;;;;;;;;;;8.77;78.02;98101.75;4879895;29;19928;-56
2022/11/07 07:20:42;;;;;;;;;;;;;;;8.77;77.59;98110.69;4878730;29;19928;-56
2022/11/07 07:23:10;;;;;;;;;;;;;;;8.76;78.02;98098.25;4879988;29;20297;-57
2022/11/07 07:25:38;;;;;;;;;;;;;;;8.80;77.56;98096.56;4893909;29;19939;-56
2022/11/07 07:28:07;;;;;;;;;;;;;;;8.81;77.81;98097.38;4873181;29;19928;-57
2022/11/07 07:30:37;;;;;;;;;;;;;;;8.88;77.53;98101.31;4879492;29;20378;-57
2022/11/07 07:33:05;;;;;;;;;;;;;;;8.84;77.36;98104.91;4878927;29;20386;-57
2022/11/07 07:35:33;;;;;;;;;;;;;;;8.86;77.17;98097.28;4878889;29;19967;-57
2022/11/07 07:38:01;;;;;;;;;;;;;;;8.91;77.37;98089.88;4872722;29;19928;-56
2022/11/07 07:40:29;;;;;;;;;;;;;;;8.88;76.94;98100.50;4879383;29;19935;-57
2022/11/07 07:42:59;;;;;;;;;;;;;;;8.93;77.08;98103.94;4890068;29;19931;-56
2022/11/07 07:45:26;;;;;;;;;;;;;;;9.03;76.95;98102.97;4880070;29;19960;-57
2022/11/07 07:48:01;;;;;;;;;;;;;;;8.89;77.19;98108.34;4893369;29;19928;-57
2022/11/07 07:50:30;;;;;;;;;;;;;;;8.90;77.03;98109.97;4878395;29;20737;-56
2022/11/07 07:52:58;;;;;;;;;;;;;;;9.02;76.77;98105.97;4877391;29;19991;-56
2022/11/07 07:55:29;;;;;;;;;;;;;;;9.02;76.79;98108.69;4878090;29;19938;-56
2022/11/07 07:57:59;;;;;;;;;;;;;;;8.83;77.12;98108.72;4880646;29;19983;-57
2022/11/07 08:00:28;;;;;;;;;;;;;;;8.97;76.93;98106.06;4878131;29;19936;-57
2022/11/07 08:03:01;;;;;;;;;;;;;;;9.06;76.75;98113.22;4879115;29;19932;-59
2022/11/07 08:05:29;;;;;;;;;;;;;;;9.03;76.87;98108.38;4880690;29;19932;-56
2022/11/07 08:08:00;;;;;;;;;;;;;;;9.14;77.04;98109.03;4876733;29;19928;-56
2022/11/07 08:10:28;;;;;;;;;;;;;;;9.28;76.77;98111.78;4871496;29;20291;-56
2022/11/07 08:13:12;;;;;;;;;;;;;;;9.35;76.48;98104.84;4876639;29;19935;-56
2022/11/07 08:15:41;;;;;;;;;;;;;;;9.37;75.88;98112.69;4876869;29;19928;-56
2022/11/07 08:18:12;;;;;;;;;;;;;;;9.30;76.25;98107.66;4876807;29;19928;-56
2022/11/07 08:20:40;;;;;;;;;;;;;;;9.24;76.55;98108.84;4875883;29;19936;-56
2022/11/07 08:23:09;;;;;;;;;;;;;;;9.31;76.60;98109.25;4875828;29;19932;-56
2022/11/07 08:25:48;;;;;;;;;;;;;;;9.22;75.88;98105.66;4877257;29;19932;-56
2022/11/07 08:28:17;;;;;;;;;;;;;;;9.30;75.99;98104.94;4890435;29;19928;-55
2022/11/07 08:30:45;;;;;;;;;;;;;;;9.51;75.40;98107.31;4882278;29;19931;-56
2022/11/07 08:33:15;;;;;;;;;;;;;;;9.44;75.76;98110.41;4877335;29;19932;-56
2022/11/07 08:35:43;;;;;;;;;;;;;;;9.54;75.31;98114.84;4879089;29;19928;-56
2022/11/07 08:38:12;;;;;;;;;;;;;;;9.61;75.38;98112.53;4876423;29;19975;-57
2022/11/07 08:40:40;;;;;;;;;;;;;;;9.74;75.20;98122.59;4877287;29;19971;-56
2022/11/07 08:43:08;;;;;;;;;;;;;;;9.78;74.73;98117.38;4875554;29;20003;-56
2022/11/07 08:45:37;;;;;;;;;;;;;;;9.84;74.59;98114.25;4875956;29;20429;-56
2022/11/07 08:48:06;;;;;;;;;;;;;;;9.91;74.99;98111.97;4877355;29;19944;-56
2022/11/07 08:50:36;;;;;;;;;;;;;;;10.03;74.37;98125.03;4876629;29;19932;-57
2022/11/07 08:53:04;;;;;;;;;;;;;;;10.16;73.94;98126.91;4878377;29;19935;-57
2022/11/07 08:55:33;;;;;;;;;;;;;;;10.36;73.77;98123.00;4891374;29;20289;-56
2022/11/07 08:58:05;;;;;;;;;;;;;;;10.41;73.04;98117.47;4876539;29;19928;-56
2022/11/07 09:00:42;;;;;;;;;;;;;;;10.57;73.02;98117.13;5158124;27;20018;-58
2022/11/07 09:03:12;;;;;;;;;;;;;;;10.63;71.64;98116.69;5142308;27;19978;-58
2022/11/07 09:06:03;;;;;;;;;;;;;;;10.63;72.09;98107.75;5149894;27;19930;-58
2022/11/07 09:08:31;;;;;;;;;;;;;;;10.71;71.94;98117.91;5138409;27;19934;-58
2022/11/07 09:11:02;;;;;;;;;;;;;;;10.72;71.27;98119.50;5131024;27;20288;-58
2022/11/07 09:13:31;;;;;;;;;;;;;;;10.72;71.69;98119.50;5147269;27;19930;-58
2022/11/07 09:16:25;;;;;;;;;;;;;;;10.75;71.08;98113.44;5150142;27;19968;-58
2022/11/07 09:18:56;;;;;;;;;;;;;;;10.77;71.32;98113.94;5149285;27;19976;-58
2022/11/07 09:21:25;;;;;;;;;;;;;;;10.76;71.74;98109.63;5149173;27;19968;-58
2022/11/07 09:23:53;;;;;;;;;;;;;;;10.78;71.53;98112.84;5147356;27;19932;-58
2022/11/07 09:26:21;;;;;;;;;;;;;;;10.72;72.01;98104.00;5129832;27;19927;-58
2022/11/07 09:28:51;;;;;;;;;;;;;;;10.84;71.64;98106.16;5148236;27;19972;-58
2022/11/07 09:31:27;;;;;;;;;;;;;;;10.86;71.79;98109.38;5145971;27;19955;-58
2022/11/07 09:33:55;;;;;;;;;;;;;;;10.96;72.03;98116.47;5137836;27;19968;-58
2022/11/07 09:36:29;;;;;;;;;;;;;;;11.04;71.60;98120.38;5144336;27;19931;-58
2022/11/07 09:38:59;;;;;;;;;;;;;;;11.11;71.85;98115.31;5138997;27;19983;-58
2022/11/07 09:41:31;;;;;;;;;;;;;;;11.22;71.38;98116.66;5154154;27;19968;-58
2022/11/07 09:44:03;;;;;;;;;;;;;;;11.35;71.25;98104.13;5142949;27;20333;-58
2022/11/07 09:46:35;;;;;;;;;;;;;;;11.45;71.24;98103.81;5148199;27;19988;-58
2022/11/07 09:49:30;;;;;;;;;;;;;;;11.53;70.87;98105.81;5145543;27;19924;-58
2022/11/07 09:52:24;;;;;;;;;;;;;;;11.63;71.09;98108.25;5142529;27;19923;-57
2022/11/07 09:54:54;;;;;;;;;;;;;;;11.71;70.38;98115.66;5149259;27;19965;-58
2022/11/07 09:57:28;;;;;;;;;;;;;;;11.79;70.14;98114.09;5154191;27;19928;-58
2022/11/07 09:59:57;;;;;;;;;;;;;;;11.93;69.74;98106.66;5144780;27;19931;-58
2022/11/07 10:02:28;;;;;;;;;;;;;;;11.97;69.60;98107.63;5151496;27;19967;-58
2022/11/07 10:04:57;;;;;;;;;;;;;;;12.03;69.09;98102.81;5147342;27;19924;-58
2022/11/07 10:07:31;;;;;;;;;;;;;;;12.25;67.91;98115.53;5144553;27;19934;-58
2022/11/07 10:10:01;;;;;;;;;;;;;;;12.18;68.24;98116.00;5145867;27;19931;-58
2022/11/07 10:12:39;;;;;;;;;;;;;;;12.12;68.74;98113.75;5134030;27;20375;-63
2022/11/07 10:15:14;;;;;;;;;;;;;;;12.16;68.61;98114.72;5125134;27;19923;-58
2022/11/07 10:17:45;;;;;;;;;;;;;;;12.30;68.25;98121.66;5132186;27;19931;-58
2022/11/07 10:20:41;;;;;;;;;;;;;;;12.40;67.23;98122.47;5135106;27;20222;-58
2022/11/07 10:23:18;;;;;;;;;;;;;;;12.34;67.34;98116.38;5134480;27;19923;-58
2022/11/07 10:25:47;;;;;;;;;;;;;;;12.32;67.29;98130.31;5127396;27;19931;-56
2022/11/07 10:28:16;;;;;;;;;;;;;;;12.45;67.03;98125.84;5134295;27;20011;-55
2022/11/07 10:30:47;;;;;;;;;;;;;;;12.59;66.21;98125.72;5130273;27;19923;-55
2022/11/07 10:33:35;;;;;;;;;;;;;;;12.66;65.75;98117.84;5135715;27;19927;-55
2022/11/07 10:36:05;;;;;;;;;;;;;;;12.57;66.21;98126.03;5136447;27;19933;-56
2022/11/07 10:38:34;;;;;;;;;;;;;;;12.60;65.99;98127.31;5134414;27;20299;-55
2022/11/07 10:41:02;;;;;;;;;;;;;;;12.57;66.07;98123.31;5130792;27;19968;-56
2022/11/07 10:43:32;;;;;;;;;;;;;;;12.53;66.26;98116.88;5131903;27;20330;-58
2022/11/07 10:46:01;;;;;;;;;;;;;;;12.61;66.50;98128.13;5123265;27;19931;-58
2022/11/07 10:48:29;;;;;;;;;;;;;;;12.77;65.92;98123.78;5131089;27;19928;-58
2022/11/07 10:50:59;;;;;;;;;;;;;;;12.85;65.23;98115.63;5129786;27;20368;-58
2022/11/07 10:53:28;;;;;;;;;;;;;;;12.91;65.13;98115.47;5132606;27;19932;-55
2022/11/07 10:55:56;;;;;;;;;;;;;;;12.83;64.76;98109.69;5138988;27;19957;-56
2022/11/07 10:58:28;;;;;;;;;;;;;;;13.04;64.37;98115.28;5136262;27;19930;-55
2022/11/07 11:01:00;;;;;;;;;;;;;;;13.00;63.98;98114.34;5138647;27;19923;-55
2022/11/07 11:03:30;;;;;;;;;;;;;;;12.85;64.35;98107.44;5128892;27;19934;-56
2022/11/07 11:06:21;;;;;;;;;;;;;;;12.86;64.79;98102.78;5135187;27;19931;-58
2022/11/07 11:08:50;;;;;;;;;;;;;;;12.94;64.95;98107.44;5126655;27;20334;-58
2022/11/07 11:11:25;;;;;;;;;;;;;;;13.17;64.02;98104.53;5132613;27;20376;-57
2022/11/07 11:14:02;;;;;;;;;;;;;;;13.17;63.85;98101.81;5114335;27;19924;-58
2022/11/07 11:16:39;;;;;;;;;;;;;;;13.29;63.73;98104.69;5128376;27;19962;-63
2022/11/07 11:19:17;;;;;;;;;;;;;;;13.27;63.82;98098.78;5126159;27;19924;-58
2022/11/07 11:21:48;;;;;;;;;;;;;;;13.29;63.47;98093.78;5133258;27;19946;-58
2022/11/07 11:24:23;;;;;;;;;;;;;;;13.36;63.64;98091.34;5136131;27;19928;-58
2022/11/07 11:26:54;;;;;;;;;;;;;;;13.38;63.32;98091.03;5112307;27;20388;-59
2022/11/07 11:29:27;;;;;;;;;;;;;;;13.29;64.22;98082.88;5133087;27;19924;-55
2022/11/07 11:31:58;;;;;;;;;;;;;;;13.22;64.05;98083.38;5127373;27;19927;-56
2022/11/07 11:34:27;;;;;;;;;;;;;;;13.38;63.87;98075.47;5131493;27;19931;-58
2022/11/07 11:39:56;;;;;;;;;;;;;;;13.41;63.19;98069.34;5127713;27;19923;-58
2022/11/07 11:42:26;;;;;;;;;;;;;;;13.45;63.20;98059.38;5111602;27;19979;-58
2022/11/07 11:44:55;;;;;;;;;;;;;;;13.39;63.53;98060.69;5139474;27;19963;-58
2022/11/07 11:47:25;;;;;;;;;;;;;;;13.41;63.57;98058.44;5132079;27;19923;-58
2022/11/07 11:50:04;;;;;;;;;;;;;;;13.38;62.90;98047.38;5128583;27;19923;-58
2022/11/07 11:52:34;;;;;;;;;;;;;;;13.47;62.87;98050.88;5128652;27;19923;-58
2022/11/07 11:55:03;;;;;;;;;;;;;;;13.55;62.83;98048.13;5117445;27;19924;-58
2022/11/07 11:57:33;;;;;;;;;;;;;;;13.66;62.40;98045.03;5118336;27;19992;-58
2022/11/07 12:00:04;;;;;;;;;;;;;;;13.65;62.84;98037.97;5126209;27;19950;-58
2022/11/07 12:02:45;;;;;;;;;;;;;;;13.87;61.69;98041.22;5128978;27;20350;-58
2022/11/07 12:05:19;;;;;;;;;;;;;;;13.85;61.68;98042.69;5127067;27;20011;-57
2022/11/07 12:07:50;;;;;;;;;;;;;;;13.74;62.16;98045.00;5130666;27;20387;-58
2022/11/07 12:10:23;;;;;;;;;;;;;;;13.72;62.09;98054.63;5137220;27;19986;-56
2022/11/07 12:12:57;;;;;;;;;;;;;;;13.72;62.33;98049.16;5112453;27;20391;-56
2022/11/07 12:15:29;;;;;;;;;;;;;;;13.65;62.25;98048.88;5132236;27;19991;-56
2022/11/07 12:18:22;;;;;;;;;;;;;;;13.62;62.67;98042.94;5116955;27;19923;-56
2022/11/07 12:20:57;;;;;;;;;;;;;;;13.76;62.77;98058.31;5134179;27;19931;-56
2022/11/07 12:23:29;;;;;;;;;;;;;;;13.80;62.39;98042.88;5131193;27;19927;-56
2022/11/07 12:25:59;;;;;;;;;;;;;;;13.82;62.25;98052.34;5123026;27;19924;-56
2022/11/07 12:28:33;;;;;;;;;;;;;;;13.96;62.03;98052.13;5124955;27;20295;-56
2022/11/07 12:31:04;;;;;;;;;;;;;;;13.91;61.89;98055.03;5127306;27;19923;-56
2022/11/07 12:33:34;;;;;;;;;;;;;;;13.81;62.46;98055.41;5132119;27;19931;-56
2022/11/07 12:36:02;;;;;;;;;;;;;;;13.82;62.52;98046.06;5132062;27;19930;-56
2022/11/07 12:38:54;;;;;;;;;;;;;;;13.70;62.88;98044.03;5126133;27;19927;-56
2022/11/07 12:41:27;;;;;;;;;;;;;;;13.72;63.02;98040.97;5107200;27;19923;-55
2022/11/07 12:44:21;;;;;;;;;;;;;;;13.67;62.88;98046.63;5125939;27;19980;-56
2022/11/07 12:46:51;;;;;;;;;;;;;;;13.62;62.85;98045.66;5129146;27;19939;-56
2022/11/07 12:52:39;;;;;;;;;;;;;;;13.38;63.81;98031.81;5127949;27;19933;-56
2022/11/07 12:55:14;;;;;;;;;;;;;;;13.41;63.75;98039.31;5132999;27;20276;-56
2022/11/07 12:57:44;;;;;;;;;;;;;;;13.43;63.89;98039.81;5132895;27;20369;-56
2022/11/07 13:00:17;;;;;;;;;;;;;;;13.45;63.32;98037.56;5134072;27;19937;-56
2022/11/07 13:02:49;;;;;;;;;;;;;;;13.47;63.85;98035.28;5111838;27;20295;-56
2022/11/07 13:05:23;;;;;;;;;;;;;;;13.49;64.23;98032.25;5131074;27;19976;-55
2022/11/07 13:07:52;;;;;;;;;;;;;;;13.59;63.57;98031.91;5132234;27;19953;-56
2022/11/07 13:10:23;;;;;;;;;;;;;;;13.69;63.22;98034.25;5124354;27;19924;-55
2022/11/07 13:12:54;;;;;;;;;;;;;;;13.59;63.25;98038.16;5131457;28;19930;-57
2022/11/07 13:15:24;;;;;;;;;;;;;;;13.62;63.26;98036.69;5124732;27;19930;-56
2022/11/07 13:20:45;;;;;;;;;;;;;;;13.63;63.69;98032.81;5124777;28;19924;-56
2022/11/07 13:23:14;;;;;;;;;;;;;;;13.59;63.35;98038.16;5118381;28;19927;-56
2022/11/07 13:25:42;;;;;;;;;;;;;;;13.57;63.37;98045.06;5108843;28;20269;-56
2022/11/07 13:28:26;;;;;;;;;;;;;;;13.69;63.03;98041.63;5131297;27;19923;-56
2022/11/07 13:30:58;;;;;;;;;;;;;;;13.62;61.93;98037.47;5120362;28;19924;-56
2022/11/07 13:33:36;;;;;;;;;;;;;;;13.68;61.96;98042.75;5127389;27;20400;-56
2022/11/07 13:36:14;;;;;;;;;;;;;;;13.78;61.38;98039.66;5131177;28;20026;-55
2022/11/07 13:38:47;;;;;;;;;;;;;;;13.58;61.06;98044.75;5127006;27;20014;-56
2022/11/07 13:41:16;;;;;;;;;;;;;;;13.71;60.59;98050.31;5126569;27;19924;-56
2022/11/07 13:43:47;;;;;;;;;;;;;;;13.62;61.61;98051.13;5119783;27;20014;-56
2022/11/07 13:46:18;;;;;;;;;;;;;;;13.64;60.90;98056.28;5127275;27;19988;-55
2022/11/07 13:48:47;;;;;;;;;;;;;;;13.68;60.64;98056.41;5134393;27;19923;-56
2022/11/07 13:51:17;;;;;;;;;;;;;;;13.61;60.71;98067.84;5117203;27;19928;-56